sensor_id;sensor_type;location;lat;lon;timestamp;pressure;altitude;pressure_sealevel;temperature;humidity
78149;BME280;67396;42.664;23.382;2024-02-14T00:02:07;94694.75;;;5.12;79.31
78149;BME280;67396;42.664;23.382;2024-02-14T00:04:32;94688.72;;;5.03;79.74
78149;BME280;67396;42.664;23.382;2024-02-14T00:06:58;94683.16;;;4.96;80.37
78149;BME280;67396;42.664;23.382;2024-02-14T00:09:23;94691.84;;;5.01;80.31
78149;BME280;67396;42.664;23.382;2024-02-14T00:11:49;94702.88;;;5.08;79.76
78149;BME280;67396;42.664;23.382;2024-02-14T00:14:14;94701.94;;;5.01;80.52
78149;BME280;67396;42.664;23.382;2024-02-14T00:16:41;94704.06;;;5.11;79.07
78149;BME280;67396;42.664;23.382;2024-02-14T00:19:07;94702.34;;;5.03;79.66
78149;BME280;67396;42.664;23.382;2024-02-14T00:21:32;94699.63;;;5.03;79.22
78149;BME280;67396;42.664;23.382;2024-02-14T00:24:00;94704.91;;;4.96;80.00
78149;BME280;67396;42.664;23.382;2024-02-14T00:26:26;94704.13;;;4.95;79.70
78149;BME280;67396;42.664;23.382;2024-02-14T00:28:52;94701.47;;;4.99;80.10
78149;BME280;67396;42.664;23.382;2024-02-14T00:31:17;94694.25;;;5.06;79.37
78149;BME280;67396;42.664;23.382;2024-02-14T00:33:42;94698.81;;;5.02;79.75
78149;BME280;67396;42.664;23.382;2024-02-14T00:36:10;94697.63;;;5.00;79.67
78149;BME280;67396;42.664;23.382;2024-02-14T00:38:36;94698.13;;;5.05;79.16
78149;BME280;67396;42.664;23.382;2024-02-14T00:41:01;94711.44;;;5.10;79.31
78149;BME280;67396;42.664;23.382;2024-02-14T00:43:26;94702.78;;;5.05;79.16
78149;BME280;67396;42.664;23.382;2024-02-14T00:45:52;94707.50;;;5.08;78.74
78149;BME280;67396;42.664;23.382;2024-02-14T00:48:17;94712.06;;;5.04;79.15
78149;BME280;67396;42.664;23.382;2024-02-14T00:50:43;94703.06;;;5.00;79.02
78149;BME280;67396;42.664;23.382;2024-02-14T00:53:08;94713.66;;;5.05;79.11
78149;BME280;67396;42.664;23.382;2024-02-14T00:55:34;94717.31;;;5.12;78.82
78149;BME280;67396;42.664;23.382;2024-02-14T00:57:59;94722.50;;;5.17;78.55
78149;BME280;67396;42.664;23.382;2024-02-14T01:00:25;94718.78;;;5.25;78.62
78149;BME280;67396;42.664;23.382;2024-02-14T01:02:51;94708.44;;;5.15;78.33
78149;BME280;67396;42.664;23.382;2024-02-14T01:05:16;94714.91;;;5.26;78.39
78149;BME280;67396;42.664;23.382;2024-02-14T01:07:42;94711.88;;;5.12;78.77
78149;BME280;67396;42.664;23.382;2024-02-14T01:10:08;94714.25;;;5.14;78.78
78149;BME280;67396;42.664;23.382;2024-02-14T01:12:34;94716.13;;;5.10;78.64
78149;BME280;67396;42.664;23.382;2024-02-14T01:15:00;94713.31;;;5.06;78.76
78149;BME280;67396;42.664;23.382;2024-02-14T01:17:25;94709.16;;;5.12;79.10
78149;BME280;67396;42.664;23.382;2024-02-14T01:19:51;94706.94;;;4.99;78.92
78149;BME280;67396;42.664;23.382;2024-02-14T01:22:16;94713.41;;;5.10;78.77
78149;BME280;67396;42.664;23.382;2024-02-14T01:24:42;94717.06;;;5.02;79.07
78149;BME280;67396;42.664;23.382;2024-02-14T01:27:08;94716.22;;;4.98;79.65
78149;BME280;67396;42.664;23.382;2024-02-14T01:29:34;94710.28;;;4.92;80.13
78149;BME280;67396;42.664;23.382;2024-02-14T01:32:00;94713.50;;;4.98;79.45
78149;BME280;67396;42.664;23.382;2024-02-14T01:34:25;94703.47;;;5.02;79.05
78149;BME280;67396;42.664;23.382;2024-02-14T01:36:51;94698.81;;;5.02;79.08
78149;BME280;67396;42.664;23.382;2024-02-14T01:39:16;94710.28;;;5.11;78.55
78149;BME280;67396;42.664;23.382;2024-02-14T01:41:47;94715.97;;;5.22;77.98
78149;BME280;67396;42.664;23.382;2024-02-14T01:44:14;94706.22;;;5.21;78.36
78149;BME280;67396;42.664;23.382;2024-02-14T01:46:42;94700.63;;;5.14;78.32
78149;BME280;67396;42.664;23.382;2024-02-14T01:49:09;94707.75;;;5.18;77.89
78149;BME280;67396;42.664;23.382;2024-02-14T01:51:35;94713.22;;;5.03;78.28
78149;BME280;67396;42.664;23.382;2024-02-14T01:54:02;94705.69;;;4.96;78.96
78149;BME280;67396;42.664;23.382;2024-02-14T01:56:29;94704.06;;;4.91;79.10
78149;BME280;67396;42.664;23.382;2024-02-14T01:58:56;94714.28;;;4.98;78.48
78149;BME280;67396;42.664;23.382;2024-02-14T02:01:22;94709.56;;;4.95;79.48
78149;BME280;67396;42.664;23.382;2024-02-14T02:03:49;94715.34;;;4.93;79.17
78149;BME280;67396;42.664;23.382;2024-02-14T02:06:15;94709.06;;;4.89;79.26
78149;BME280;67396;42.664;23.382;2024-02-14T02:08:43;94722.38;;;4.95;78.47
78149;BME280;67396;42.664;23.382;2024-02-14T02:11:09;94718.06;;;4.93;78.47
78149;BME280;67396;42.664;23.382;2024-02-14T02:13:35;94718.50;;;4.96;78.27
78149;BME280;67396;42.664;23.382;2024-02-14T02:16:01;94718.25;;;5.01;78.38
78149;BME280;67396;42.664;23.382;2024-02-14T02:18:30;94727.69;;;5.07;78.03
78149;BME280;67396;42.664;23.382;2024-02-14T02:20:58;94725.97;;;4.99;78.00
78149;BME280;67396;42.664;23.382;2024-02-14T02:23:24;94724.09;;;5.03;77.94
78149;BME280;67396;42.664;23.382;2024-02-14T02:25:50;94730.31;;;5.03;78.27
78149;BME280;67396;42.664;23.382;2024-02-14T02:28:16;94731.56;;;5.06;77.77
78149;BME280;67396;42.664;23.382;2024-02-14T02:30:42;94733.84;;;5.04;78.06
78149;BME280;67396;42.664;23.382;2024-02-14T02:33:07;94729.28;;;5.08;77.40
78149;BME280;67396;42.664;23.382;2024-02-14T02:35:34;94732.78;;;5.08;77.04
78149;BME280;67396;42.664;23.382;2024-02-14T02:38:00;94733.63;;;5.12;77.17
78149;BME280;67396;42.664;23.382;2024-02-14T02:40:25;94728.41;;;5.04;77.11
78149;BME280;67396;42.664;23.382;2024-02-14T02:42:55;94729.53;;;5.03;77.87
78149;BME280;67396;42.664;23.382;2024-02-14T02:45:21;94740.47;;;5.22;76.64
78149;BME280;67396;42.664;23.382;2024-02-14T02:47:46;94746.84;;;5.29;76.04
78149;BME280;67396;42.664;23.382;2024-02-14T02:50:13;94745.50;;;5.04;76.88
78149;BME280;67396;42.664;23.382;2024-02-14T02:52:39;94743.13;;;5.03;76.84
78149;BME280;67396;42.664;23.382;2024-02-14T02:55:07;94746.16;;;4.98;77.25
78149;BME280;67396;42.664;23.382;2024-02-14T02:57:32;94755.88;;;4.99;76.75
78149;BME280;67396;42.664;23.382;2024-02-14T03:00:00;94750.88;;;5.01;76.42
78149;BME280;67396;42.664;23.382;2024-02-14T03:02:25;94757.81;;;4.98;76.71
78149;BME280;67396;42.664;23.382;2024-02-14T03:04:51;94763.25;;;4.98;76.95
78149;BME280;67396;42.664;23.382;2024-02-14T03:07:19;94768.59;;;4.95;77.09
78149;BME280;67396;42.664;23.382;2024-02-14T03:09:44;94771.31;;;4.95;77.12
78149;BME280;67396;42.664;23.382;2024-02-14T03:12:10;94768.94;;;4.93;77.23
78149;BME280;67396;42.664;23.382;2024-02-14T03:14:35;94766.94;;;4.90;76.55
78149;BME280;67396;42.664;23.382;2024-02-14T03:17:04;94770.03;;;4.88;76.81
78149;BME280;67396;42.664;23.382;2024-02-14T03:19:30;94774.66;;;4.88;77.00
78149;BME280;67396;42.664;23.382;2024-02-14T03:21:56;94773.44;;;4.85;76.77
78149;BME280;67396;42.664;23.382;2024-02-14T03:24:22;94782.38;;;4.86;77.14
78149;BME280;67396;42.664;23.382;2024-02-14T03:26:51;94786.44;;;4.92;76.56
78149;BME280;67396;42.664;23.382;2024-02-14T03:29:19;94793.78;;;4.91;76.84
78149;BME280;67396;42.664;23.382;2024-02-14T03:31:45;94785.09;;;4.86;76.79
78149;BME280;67396;42.664;23.382;2024-02-14T03:34:11;94799.59;;;4.90;76.56
78149;BME280;67396;42.664;23.382;2024-02-14T03:36:37;94799.25;;;4.91;76.48
78149;BME280;67396;42.664;23.382;2024-02-14T03:39:04;94802.56;;;4.85;76.79
78149;BME280;67396;42.664;23.382;2024-02-14T03:41:31;94805.22;;;4.81;76.79
78149;BME280;67396;42.664;23.382;2024-02-14T03:43:56;94805.09;;;4.93;76.58
78149;BME280;67396;42.664;23.382;2024-02-14T03:46:27;94805.97;;;4.98;76.23
78149;BME280;67396;42.664;23.382;2024-02-14T03:48:54;94805.09;;;4.93;76.68
78149;BME280;67396;42.664;23.382;2024-02-14T03:51:19;94816.25;;;4.88;76.36
78149;BME280;67396;42.664;23.382;2024-02-14T03:53:46;94814.03;;;4.94;75.51
78149;BME280;67396;42.664;23.382;2024-02-14T03:56:11;94806.84;;;5.02;75.50
78149;BME280;67396;42.664;23.382;2024-02-14T03:58:38;94813.00;;;4.99;75.73
78149;BME280;67396;42.664;23.382;2024-02-14T04:01:04;94809.66;;;5.05;75.87
78149;BME280;67396;42.664;23.382;2024-02-14T04:03:30;94805.28;;;5.01;76.26
78149;BME280;67396;42.664;23.382;2024-02-14T04:05:56;94807.72;;;5.06;76.32
78149;BME280;67396;42.664;23.382;2024-02-14T04:08:21;94819.97;;;5.31;79.48
78149;BME280;67396;42.664;23.382;2024-02-14T04:10:47;94818.38;;;5.30;74.62
78149;BME280;67396;42.664;23.382;2024-02-14T04:13:16;94820.25;;;5.26;79.66
78149;BME280;67396;42.664;23.382;2024-02-14T04:15:41;94820.41;;;5.33;74.77
78149;BME280;67396;42.664;23.382;2024-02-14T04:18:10;94824.03;;;5.06;74.31
78149;BME280;67396;42.664;23.382;2024-02-14T04:20:36;94830.63;;;5.05;75.09
78149;BME280;67396;42.664;23.382;2024-02-14T04:23:01;94835.09;;;4.97;74.82
78149;BME280;67396;42.664;23.382;2024-02-14T04:25:28;94828.25;;;4.87;75.10
78149;BME280;67396;42.664;23.382;2024-02-14T04:27:54;94839.16;;;4.87;75.33
78149;BME280;67396;42.664;23.382;2024-02-14T04:30:19;94840.22;;;4.83;75.72
78149;BME280;67396;42.664;23.382;2024-02-14T04:32:44;94837.22;;;4.88;75.37
78149;BME280;67396;42.664;23.382;2024-02-14T04:35:10;94835.91;;;4.82;75.53
78149;BME280;67396;42.664;23.382;2024-02-14T04:37:35;94837.72;;;4.78;75.55
78149;BME280;67396;42.664;23.382;2024-02-14T04:40:02;94842.66;;;4.72;76.49
78149;BME280;67396;42.664;23.382;2024-02-14T04:42:29;94845.56;;;4.79;75.88
78149;BME280;67396;42.664;23.382;2024-02-14T04:44:55;94850.38;;;4.70;76.12
78149;BME280;67396;42.664;23.382;2024-02-14T04:47:20;94853.34;;;4.65;76.76
78149;BME280;67396;42.664;23.382;2024-02-14T04:49:46;94859.81;;;4.61;76.98
78149;BME280;67396;42.664;23.382;2024-02-14T04:52:12;94858.59;;;4.58;77.16
78149;BME280;67396;42.664;23.382;2024-02-14T04:54:37;94861.94;;;4.67;76.69
78149;BME280;67396;42.664;23.382;2024-02-14T04:57:03;94866.41;;;4.75;76.29
78149;BME280;67396;42.664;23.382;2024-02-14T04:59:30;94867.75;;;4.81;75.69
78149;BME280;67396;42.664;23.382;2024-02-14T05:01:55;94868.25;;;4.71;76.10
78149;BME280;67396;42.664;23.382;2024-02-14T05:04:22;94865.53;;;4.87;77.89
78149;BME280;67396;42.664;23.382;2024-02-14T05:06:48;94869.66;;;4.97;76.81
78149;BME280;67396;42.664;23.382;2024-02-14T05:09:14;94883.28;;;4.81;75.93
78149;BME280;67396;42.664;23.382;2024-02-14T05:11:41;94889.06;;;4.79;76.34
78149;BME280;67396;42.664;23.382;2024-02-14T05:14:06;94888.53;;;4.74;76.38
78149;BME280;67396;42.664;23.382;2024-02-14T05:16:32;94892.22;;;4.66;76.11
78149;BME280;67396;42.664;23.382;2024-02-14T05:18:57;94892.47;;;4.76;75.90
78149;BME280;67396;42.664;23.382;2024-02-14T05:21:23;94898.78;;;4.80;75.99
78149;BME280;67396;42.664;23.382;2024-02-14T05:23:48;94904.91;;;4.77;75.52
78149;BME280;67396;42.664;23.382;2024-02-14T05:26:17;94907.19;;;4.75;76.31
78149;BME280;67396;42.664;23.382;2024-02-14T05:28:43;94914.03;;;4.69;76.49
78149;BME280;67396;42.664;23.382;2024-02-14T05:31:08;94916.13;;;4.60;76.21
78149;BME280;67396;42.664;23.382;2024-02-14T05:33:34;94922.13;;;4.66;76.54
78149;BME280;67396;42.664;23.382;2024-02-14T05:35:59;94925.81;;;4.73;76.93
78149;BME280;67396;42.664;23.382;2024-02-14T05:38:25;94926.59;;;4.74;76.40
78149;BME280;67396;42.664;23.382;2024-02-14T05:40:50;94935.72;;;4.81;75.58
78149;BME280;67396;42.664;23.382;2024-02-14T05:43:16;94931.66;;;4.75;75.87
78149;BME280;67396;42.664;23.382;2024-02-14T05:45:43;94939.81;;;4.75;76.20
78149;BME280;67396;42.664;23.382;2024-02-14T05:48:09;94956.13;;;4.75;76.21
78149;BME280;67396;42.664;23.382;2024-02-14T05:50:34;94944.84;;;4.73;76.12
78149;BME280;67396;42.664;23.382;2024-02-14T05:53:00;94955.00;;;4.76;76.33
78149;BME280;67396;42.664;23.382;2024-02-14T05:55:26;94956.13;;;4.75;75.95
78149;BME280;67396;42.664;23.382;2024-02-14T05:57:52;94956.41;;;4.70;75.85
78149;BME280;67396;42.664;23.382;2024-02-14T06:00:19;94956.75;;;4.69;75.97
78149;BME280;67396;42.664;23.382;2024-02-14T06:02:46;94960.25;;;4.69;75.72
78149;BME280;67396;42.664;23.382;2024-02-14T06:05:13;94965.69;;;4.69;75.48
78149;BME280;67396;42.664;23.382;2024-02-14T06:07:38;94973.50;;;4.71;75.41
78149;BME280;67396;42.664;23.382;2024-02-14T06:10:04;94977.88;;;4.75;75.34
78149;BME280;67396;42.664;23.382;2024-02-14T06:12:32;94974.03;;;4.76;74.30
78149;BME280;67396;42.664;23.382;2024-02-14T06:14:57;94983.88;;;4.53;75.46
78149;BME280;67396;42.664;23.382;2024-02-14T06:17:23;94984.34;;;4.55;75.65
78149;BME280;67396;42.664;23.382;2024-02-14T06:19:48;94982.69;;;4.66;75.13
78149;BME280;67396;42.664;23.382;2024-02-14T06:22:14;94983.88;;;4.53;75.58
78149;BME280;67396;42.664;23.382;2024-02-14T06:24:39;94988.38;;;4.61;75.72
78149;BME280;67396;42.664;23.382;2024-02-14T06:27:05;94991.22;;;4.65;75.12
78149;BME280;67396;42.664;23.382;2024-02-14T06:29:30;94995.28;;;4.59;75.42
78149;BME280;67396;42.664;23.382;2024-02-14T06:31:56;94998.56;;;4.64;74.80
78149;BME280;67396;42.664;23.382;2024-02-14T06:34:21;95005.16;;;4.51;74.68
78149;BME280;67396;42.664;23.382;2024-02-14T06:36:47;95003.91;;;4.61;75.10
78149;BME280;67396;42.664;23.382;2024-02-14T06:39:12;95000.50;;;4.64;73.93
78149;BME280;67396;42.664;23.382;2024-02-14T06:41:38;95004.81;;;4.65;74.06
78149;BME280;67396;42.664;23.382;2024-02-14T06:44:04;95000.84;;;4.62;74.50
78149;BME280;67396;42.664;23.382;2024-02-14T06:46:30;95007.94;;;4.67;73.59
78149;BME280;67396;42.664;23.382;2024-02-14T06:48:56;95012.22;;;4.80;72.93
78149;BME280;67396;42.664;23.382;2024-02-14T06:51:22;95012.66;;;4.82;72.89
78149;BME280;67396;42.664;23.382;2024-02-14T06:53:49;95013.50;;;4.70;72.49
78149;BME280;67396;42.664;23.382;2024-02-14T06:56:14;95015.75;;;4.68;73.21
78149;BME280;67396;42.664;23.382;2024-02-14T06:58:40;95015.53;;;4.73;72.92
78149;BME280;67396;42.664;23.382;2024-02-14T07:01:05;95029.06;;;4.85;72.66
78149;BME280;67396;42.664;23.382;2024-02-14T07:03:31;95020.72;;;4.78;72.90
78149;BME280;67396;42.664;23.382;2024-02-14T07:05:58;95023.88;;;4.80;72.45
78149;BME280;67396;42.664;23.382;2024-02-14T07:08:24;95030.47;;;4.67;72.66
78149;BME280;67396;42.664;23.382;2024-02-14T07:10:52;95036.16;;;4.74;72.72
78149;BME280;67396;42.664;23.382;2024-02-14T07:13:18;95042.47;;;4.78;73.00
78149;BME280;67396;42.664;23.382;2024-02-14T07:15:44;95037.28;;;4.73;72.42
78149;BME280;67396;42.664;23.382;2024-02-14T07:18:10;95049.09;;;4.65;72.39
78149;BME280;67396;42.664;23.382;2024-02-14T07:20:36;95050.41;;;4.71;72.69
78149;BME280;67396;42.664;23.382;2024-02-14T07:23:01;95048.81;;;4.82;72.43
78149;BME280;67396;42.664;23.382;2024-02-14T07:25:27;95045.31;;;4.70;72.48
78149;BME280;67396;42.664;23.382;2024-02-14T07:27:52;95044.94;;;4.83;71.62
78149;BME280;67396;42.664;23.382;2024-02-14T07:30:18;95053.88;;;4.84;71.74
78149;BME280;67396;42.664;23.382;2024-02-14T07:32:44;95039.50;;;4.83;70.40
78149;BME280;67396;42.664;23.382;2024-02-14T07:35:11;95050.63;;;4.78;70.38
78149;BME280;67396;42.664;23.382;2024-02-14T07:37:38;95053.44;;;4.82;70.87
78149;BME280;67396;42.664;23.382;2024-02-14T07:40:04;95048.34;;;4.80;70.80
78149;BME280;67396;42.664;23.382;2024-02-14T07:42:31;95063.09;;;4.79;71.03
78149;BME280;67396;42.664;23.382;2024-02-14T07:44:57;95058.63;;;4.87;70.31
78149;BME280;67396;42.664;23.382;2024-02-14T07:47:22;95060.97;;;4.73;69.79
78149;BME280;67396;42.664;23.382;2024-02-14T07:49:48;95060.91;;;4.57;70.80
78149;BME280;67396;42.664;23.382;2024-02-14T07:52:13;95066.75;;;4.59;71.50
78149;BME280;67396;42.664;23.382;2024-02-14T07:54:39;95063.22;;;4.71;70.72
78149;BME280;67396;42.664;23.382;2024-02-14T07:57:04;95062.63;;;4.77;70.17
78149;BME280;67396;42.664;23.382;2024-02-14T07:59:30;95070.84;;;4.65;70.46
78149;BME280;67396;42.664;23.382;2024-02-14T08:01:55;95073.31;;;4.70;70.10
78149;BME280;67396;42.664;23.382;2024-02-14T08:04:23;95072.63;;;4.73;71.50
78149;BME280;67396;42.664;23.382;2024-02-14T08:06:48;95077.84;;;4.66;70.43
78149;BME280;67396;42.664;23.382;2024-02-14T08:09:14;95079.41;;;4.67;70.69
78149;BME280;67396;42.664;23.382;2024-02-14T08:11:42;95077.66;;;4.87;71.15
78149;BME280;67396;42.664;23.382;2024-02-14T08:14:07;95084.19;;;4.70;69.99
78149;BME280;67396;42.664;23.382;2024-02-14T08:16:33;95086.13;;;4.58;70.97
78149;BME280;67396;42.664;23.382;2024-02-14T08:18:59;95091.47;;;4.54;70.84
78149;BME280;67396;42.664;23.382;2024-02-14T08:21:27;95075.16;;;4.54;70.65
78149;BME280;67396;42.664;23.382;2024-02-14T08:23:54;95082.66;;;4.45;69.36
78149;BME280;67396;42.664;23.382;2024-02-14T08:26:23;95082.66;;;4.45;70.70
78149;BME280;67396;42.664;23.382;2024-02-14T08:28:49;95088.56;;;4.35;70.07
78149;BME280;67396;42.664;23.382;2024-02-14T08:31:15;95097.97;;;4.37;70.83
78149;BME280;67396;42.664;23.382;2024-02-14T08:33:44;95096.25;;;4.45;70.53
78149;BME280;67396;42.664;23.382;2024-02-14T08:36:09;95099.41;;;4.47;70.08
78149;BME280;67396;42.664;23.382;2024-02-14T08:38:35;95094.19;;;4.42;69.84
78149;BME280;67396;42.664;23.382;2024-02-14T08:41:04;95103.72;;;4.36;69.33
78149;BME280;67396;42.664;23.382;2024-02-14T08:43:30;95094.56;;;4.28;69.73
78149;BME280;67396;42.664;23.382;2024-02-14T08:46:02;95098.97;;;4.33;70.04
78149;BME280;67396;42.664;23.382;2024-02-14T08:48:28;95108.50;;;4.27;69.49
78149;BME280;67396;42.664;23.382;2024-02-14T08:50:55;95110.75;;;4.37;70.07
78149;BME280;67396;42.664;23.382;2024-02-14T08:53:21;95112.75;;;4.40;69.93
78149;BME280;67396;42.664;23.382;2024-02-14T08:55:47;95114.13;;;4.46;70.02
78149;BME280;67396;42.664;23.382;2024-02-14T08:58:16;95114.00;;;4.54;69.72
78149;BME280;67396;42.664;23.382;2024-02-14T09:00:56;95111.50;;;4.62;70.07
78149;BME280;67396;42.664;23.382;2024-02-14T09:03:23;95112.63;;;4.61;69.28
78149;BME280;67396;42.664;23.382;2024-02-14T09:05:48;95117.41;;;4.51;69.72
78149;BME280;67396;42.664;23.382;2024-02-14T09:08:14;95117.72;;;4.62;70.36
78149;BME280;67396;42.664;23.382;2024-02-14T09:10:39;95122.63;;;4.57;69.14
78149;BME280;67396;42.664;23.382;2024-02-14T09:13:05;95126.81;;;4.54;69.46
78149;BME280;67396;42.664;23.382;2024-02-14T09:15:33;95123.63;;;4.64;69.60
78149;BME280;67396;42.664;23.382;2024-02-14T09:17:58;95121.56;;;4.73;68.85
78149;BME280;67396;42.664;23.382;2024-02-14T09:20:25;95128.78;;;4.81;69.33
78149;BME280;67396;42.664;23.382;2024-02-14T09:22:51;95131.06;;;4.79;69.35
78149;BME280;67396;42.664;23.382;2024-02-14T09:25:16;95132.44;;;4.73;69.81
78149;BME280;67396;42.664;23.382;2024-02-14T09:27:42;95149.31;;;4.67;68.74
78149;BME280;67396;42.664;23.382;2024-02-14T09:30:09;95144.00;;;4.70;69.13
78149;BME280;67396;42.664;23.382;2024-02-14T09:32:35;95142.88;;;4.71;69.78
78149;BME280;67396;42.664;23.382;2024-02-14T09:35:00;95133.16;;;4.46;69.34
78149;BME280;67396;42.664;23.382;2024-02-14T09:37:27;95139.94;;;4.40;69.91
78149;BME280;67396;42.664;23.382;2024-02-14T09:39:53;95134.97;;;4.54;70.80
78149;BME280;67396;42.664;23.382;2024-02-14T09:42:43;95144.50;;;4.36;70.76
78149;BME280;67396;42.664;23.382;2024-02-14T09:45:09;95141.56;;;4.29;71.18
78149;BME280;67396;42.664;23.382;2024-02-14T09:47:35;95135.66;;;4.39;71.64
78149;BME280;67396;42.664;23.382;2024-02-14T09:50:03;95127.72;;;4.46;71.10
78149;BME280;67396;42.664;23.382;2024-02-14T09:52:32;95132.94;;;4.39;71.09
78149;BME280;67396;42.664;23.382;2024-02-14T09:54:58;95132.69;;;4.44;71.25
78149;BME280;67396;42.664;23.382;2024-02-14T09:57:25;95129.41;;;4.50;70.65
78149;BME280;67396;42.664;23.382;2024-02-14T09:59:51;95130.44;;;4.46;70.84
78149;BME280;67396;42.664;23.382;2024-02-14T10:02:19;95132.59;;;4.52;70.36
78149;BME280;67396;42.664;23.382;2024-02-14T10:04:45;95132.47;;;4.49;70.50
78149;BME280;67396;42.664;23.382;2024-02-14T10:07:10;95129.56;;;4.30;70.13
78149;BME280;67396;42.664;23.382;2024-02-14T10:09:40;95137.00;;;4.33;70.71
78149;BME280;67396;42.664;23.382;2024-02-14T10:12:07;95134.75;;;4.23;70.84
78149;BME280;67396;42.664;23.382;2024-02-14T10:14:34;95126.72;;;4.26;71.26
78149;BME280;67396;42.664;23.382;2024-02-14T10:17:01;95139.94;;;4.40;70.47
78149;BME280;67396;42.664;23.382;2024-02-14T10:19:26;95133.75;;;4.39;69.81
78149;BME280;67396;42.664;23.382;2024-02-14T10:21:56;95132.03;;;4.47;69.55
78149;BME280;67396;42.664;23.382;2024-02-14T10:24:25;95131.56;;;4.33;70.18
78149;BME280;67396;42.664;23.382;2024-02-14T10:26:50;95130.66;;;4.41;70.16
78149;BME280;67396;42.664;23.382;2024-02-14T10:29:16;95131.16;;;4.31;69.59
78149;BME280;67396;42.664;23.382;2024-02-14T10:31:42;95139.28;;;4.43;68.64
78149;BME280;67396;42.664;23.382;2024-02-14T10:34:07;95134.03;;;4.50;68.72
78149;BME280;67396;42.664;23.382;2024-02-14T10:36:35;95134.03;;;4.50;68.92
78149;BME280;67396;42.664;23.382;2024-02-14T10:39:01;95123.63;;;4.64;67.87
78149;BME280;67396;42.664;23.382;2024-02-14T10:41:30;95130.66;;;4.65;68.66
78149;BME280;67396;42.664;23.382;2024-02-14T10:44:04;95134.28;;;4.57;67.51
78149;BME280;67396;42.664;23.382;2024-02-14T10:46:36;95127.25;;;4.56;67.57
78149;BME280;67396;42.664;23.382;2024-02-14T10:49:03;95122.72;;;4.60;67.71
78149;BME280;67396;42.664;23.382;2024-02-14T10:51:35;95127.03;;;4.49;67.86
78149;BME280;67396;42.664;23.382;2024-02-14T10:54:04;95121.91;;;4.60;67.73
78149;BME280;67396;42.664;23.382;2024-02-14T10:56:34;95124.31;;;4.61;67.25
78149;BME280;67396;42.664;23.382;2024-02-14T10:59:04;95131.31;;;4.62;66.76
78149;BME280;67396;42.664;23.382;2024-02-14T11:01:31;95134.84;;;4.63;67.61
78149;BME280;67396;42.664;23.382;2024-02-14T11:04:01;95137.88;;;4.73;67.51
78149;BME280;67396;42.664;23.382;2024-02-14T11:06:27;95141.56;;;4.93;66.45
78149;BME280;67396;42.664;23.382;2024-02-14T11:09:03;95131.66;;;4.73;66.66
78149;BME280;67396;42.664;23.382;2024-02-14T11:11:33;95132.19;;;4.90;66.73
78149;BME280;67396;42.664;23.382;2024-02-14T11:14:02;95136.38;;;4.88;66.72
78149;BME280;67396;42.664;23.382;2024-02-14T11:16:30;95133.31;;;4.77;66.46
78149;BME280;67396;42.664;23.382;2024-02-14T11:19:11;95130.16;;;4.75;66.37
78149;BME280;67396;42.664;23.382;2024-02-14T11:21:41;95136.75;;;4.74;66.27
78149;BME280;67396;42.664;23.382;2024-02-14T11:24:14;95124.25;;;4.85;65.65
78149;BME280;67396;42.664;23.382;2024-02-14T11:29:15;95133.91;;;4.83;65.95
78149;BME280;67396;42.664;23.382;2024-02-14T11:31:44;95134.69;;;4.83;65.71
78149;BME280;67396;42.664;23.382;2024-02-14T11:34:14;95132.06;;;4.87;65.11
78149;BME280;67396;42.664;23.382;2024-02-14T11:36:44;95124.03;;;4.78;65.42
78149;BME280;67396;42.664;23.382;2024-02-14T11:39:11;95128.47;;;4.71;66.55
78149;BME280;67396;42.664;23.382;2024-02-14T11:41:39;95134.25;;;4.81;66.49
78149;BME280;67396;42.664;23.382;2024-02-14T11:44:07;95131.84;;;4.80;66.37
78149;BME280;67396;42.664;23.382;2024-02-14T11:46:35;95133.31;;;4.77;66.72
78149;BME280;67396;42.664;23.382;2024-02-14T11:49:04;95127.88;;;4.77;66.52
78149;BME280;67396;42.664;23.382;2024-02-14T11:51:33;95127.44;;;4.75;66.78
78149;BME280;67396;42.664;23.382;2024-02-14T11:53:59;95129.59;;;4.82;66.61
78149;BME280;67396;42.664;23.382;2024-02-14T11:56:36;95127.94;;;4.93;65.98
78149;BME280;67396;42.664;23.382;2024-02-14T11:59:03;95124.66;;;5.00;65.54
78149;BME280;67396;42.664;23.382;2024-02-14T12:01:31;95119.22;;;5.00;65.18
78149;BME280;67396;42.664;23.382;2024-02-14T12:03:58;95122.16;;;5.07;65.58
78149;BME280;67396;42.664;23.382;2024-02-14T12:06:26;95123.09;;;4.99;65.81
78149;BME280;67396;42.664;23.382;2024-02-14T12:08:53;95121.25;;;5.03;65.54
78149;BME280;67396;42.664;23.382;2024-02-14T12:11:19;95129.31;;;4.99;65.42
78149;BME280;67396;42.664;23.382;2024-02-14T12:13:49;95123.75;;;4.96;65.24
78149;BME280;67396;42.664;23.382;2024-02-14T12:16:15;95120.59;;;4.93;65.81
78149;BME280;67396;42.664;23.382;2024-02-14T12:18:41;95118.31;;;4.96;64.40
78149;BME280;67396;42.664;23.382;2024-02-14T12:21:07;95123.56;;;4.88;64.83
78149;BME280;67396;42.664;23.382;2024-02-14T12:23:33;95118.25;;;4.92;65.31
78149;BME280;67396;42.664;23.382;2024-02-14T12:26:03;95115.84;;;4.90;64.30
78149;BME280;67396;42.664;23.382;2024-02-14T12:28:30;95111.47;;;5.14;64.52
78149;BME280;67396;42.664;23.382;2024-02-14T12:30:57;95111.00;;;5.12;65.00
78149;BME280;67396;42.664;23.382;2024-02-14T12:33:24;95110.44;;;5.18;64.66
78149;BME280;67396;42.664;23.382;2024-02-14T12:35:51;95112.22;;;5.26;64.06
78149;BME280;67396;42.664;23.382;2024-02-14T12:38:19;95102.81;;;5.24;64.70
78149;BME280;67396;42.664;23.382;2024-02-14T12:40:45;95104.38;;;5.25;65.05
78149;BME280;67396;42.664;23.382;2024-02-14T12:43:13;95107.25;;;5.16;65.27
78149;BME280;67396;42.664;23.382;2024-02-14T12:45:40;95103.19;;;5.10;65.28
78149;BME280;67396;42.664;23.382;2024-02-14T12:48:06;95119.38;;;5.19;64.92
78149;BME280;67396;42.664;23.382;2024-02-14T12:50:33;95115.28;;;5.25;64.70
78149;BME280;67396;42.664;23.382;2024-02-14T12:53:01;95113.22;;;5.22;65.61
78149;BME280;67396;42.664;23.382;2024-02-14T12:55:27;95113.09;;;5.30;64.87
78149;BME280;67396;42.664;23.382;2024-02-14T12:57:57;95115.28;;;5.25;64.58
78149;BME280;67396;42.664;23.382;2024-02-14T13:00:23;95124.31;;;5.29;64.19